Time;durP1;ratioP1;P1;durP2;ratioP2;P2;SDS_P1;SDS_P2;PMS_P1;PMS_P2;Temp;Humidity;BMP_temperature;BMP_pressure;BME280_temperature;BME280_humidity;BME280_pressure;Samples;Min_cycle;Max_cycle;Signal;HPM_P1;HPM_P2
2023/08/20 00:00:06;;;;;;;12.87;10.30;;;;;;;21.11;100.00;151329.19;5009503;28;20717;-58
2023/08/20 00:02:42;;;;;;;17.77;10.33;;;;;;;21.10;100.00;151326.69;5008345;28;20234;-58
2023/08/20 00:05:10;;;;;;;10.80;9.70;;;;;;;21.14;100.00;151336.69;5007778;28;20249;-59
2023/08/20 00:07:37;;;;;;;14.57;10.17;;;;;;;21.14;100.00;151335.47;5015154;28;20237;-59
2023/08/20 00:10:05;;;;;;;11.17;9.47;;;;;;;21.17;100.00;151343.00;5012730;28;20321;-57
2023/08/20 00:12:33;;;;;;;13.57;9.50;;;;;;;21.20;100.00;151350.50;5012863;28;20242;-59
2023/08/20 00:15:05;;;;;;;14.07;9.97;;;;;;;21.21;100.00;151352.97;5013021;28;20320;-59
2023/08/20 00:17:33;;;;;;;12.80;9.10;;;;;;;21.25;100.00;151363.00;5009184;28;20224;-59
2023/08/20 00:20:10;;;;;;;10.20;9.13;;;;;;;21.33;100.00;151381.84;5013937;28;20711;-59
2023/08/20 00:22:37;;;;;;;15.40;9.70;;;;;;;21.30;100.00;151375.53;5010701;28;20244;-58
2023/08/20 00:25:05;;;;;;;11.77;9.30;;;;;;;21.30;100.00;151375.53;5014433;28;20241;-59
2023/08/20 00:27:33;;;;;;;14.73;9.33;;;;;;;21.28;100.00;151369.28;5010614;28;20244;-62
2023/08/20 00:30:04;;;;;;;17.43;9.60;;;;;;;21.25;100.00;151363.00;5014646;28;20225;-59
2023/08/20 00:32:31;;;;;;;15.37;10.27;;;;;;;21.21;100.00;151352.97;4999849;28;20339;-58
2023/08/20 00:35:02;;;;;;;13.17;9.33;;;;;;;21.19;100.00;151348.00;5007407;28;20238;-58
2023/08/20 00:37:29;;;;;;;11.83;9.37;;;;;;;21.22;100.00;151356.75;4992799;28;20240;-59
2023/08/20 00:39:57;;;;;;;14.50;9.53;;;;;;;21.22;100.00;151355.47;4995293;28;20237;-58
2023/08/20 00:42:25;;;;;;;12.63;9.27;;;;;;;21.24;100.00;151360.50;5013852;28;20252;-59
2023/08/20 00:44:53;;;;;;;14.10;9.77;;;;;;;21.28;100.00;151369.28;5014948;28;20230;-59
2023/08/20 00:47:21;;;;;;;14.20;9.60;;;;;;;21.26;100.00;151365.50;5007310;28;20252;-58
2023/08/20 00:49:48;;;;;;;14.53;9.80;;;;;;;21.28;100.00;151369.28;4994777;28;20295;-59
2023/08/20 00:52:17;;;;;;;14.27;9.80;;;;;;;21.24;100.00;151360.50;5008494;28;20221;-59
2023/08/20 00:54:46;;;;;;;12.00;9.73;;;;;;;21.23;100.00;151358.00;5011617;28;20266;-58
2023/08/20 00:57:14;;;;;;;15.13;9.47;;;;;;;21.21;100.00;151352.97;5009376;28;20225;-58
2023/08/20 00:59:42;;;;;;;10.73;9.63;;;;;;;21.16;100.00;151340.47;5002576;28;20242;-59
2023/08/20 01:02:10;;;;;;;12.23;9.63;;;;;;;21.15;100.00;151337.97;5012495;28;20623;-59
2023/08/20 01:04:37;;;;;;;13.63;9.50;;;;;;;21.09;100.00;151325.44;5002095;28;20233;-59
2023/08/20 01:07:15;;;;;;;10.87;9.33;;;;;;;21.05;100.00;151314.13;5017287;28;20236;-59
2023/08/20 01:09:51;;;;;;;11.37;8.97;;;;;;;20.99;100.00;151299.09;5008544;28;20225;-58
2023/08/20 01:12:18;;;;;;;16.73;10.50;;;;;;;21.00;100.00;151301.59;4999765;28;20249;-59
2023/08/20 01:14:45;;;;;;;15.47;10.17;;;;;;;20.94;100.00;151287.84;5002837;28;20246;-58
2023/08/20 01:17:13;;;;;;;14.87;9.97;;;;;;;20.88;100.00;151272.78;5008091;28;21192;-58
2023/08/20 01:19:41;;;;;;;15.27;10.83;;;;;;;20.85;100.00;151265.28;5011539;28;20245;-59
2023/08/20 01:22:28;;;;;;;14.00;10.83;;;;;;;20.86;100.00;151267.78;5005089;28;20239;-59
2023/08/20 01:25:05;;;;;;;12.43;10.80;;;;;;;20.82;100.00;151259.00;4995289;28;20229;-59
2023/08/20 01:27:45;;;;;;;14.23;10.63;;;;;;;20.86;100.00;151267.78;5009190;28;20247;-59
2023/08/20 01:30:13;;;;;;;13.33;10.07;;;;;;;20.81;100.00;151255.25;5009539;28;20699;-58
2023/08/20 01:32:42;;;;;;;15.53;10.73;;;;;;;20.76;100.00;151245.19;5012604;28;20293;-57
2023/08/20 01:35:12;;;;;;;12.90;10.77;;;;;;;20.79;100.00;151252.75;4999626;28;20355;-58
2023/08/20 01:37:39;;;;;;;18.60;10.83;;;;;;;20.84;100.00;151264.00;4995309;28;20732;-58
2023/08/20 01:40:07;;;;;;;16.60;10.93;;;;;;;20.75;100.00;151242.69;5011150;28;20292;-58
2023/08/20 01:42:34;;;;;;;13.13;10.27;;;;;;;20.75;100.00;151242.69;4994128;28;20241;-59
2023/08/20 01:45:05;;;;;;;13.33;10.97;;;;;;;20.68;100.00;151223.84;5006597;28;20242;-59
2023/08/20 01:47:33;;;;;;;16.17;10.23;;;;;;;20.63;100.00;151212.59;5006335;28;20242;-58
2023/08/20 01:50:04;;;;;;;16.13;9.73;;;;;;;20.61;100.00;151208.84;5011695;28;20327;-59
2023/08/20 01:52:31;;;;;;;12.40;11.10;;;;;;;20.57;100.00;151198.84;5008260;28;20240;-58
2023/08/20 01:55:02;;;;;;;14.17;10.80;;;;;;;20.57;100.00;151197.56;4993834;28;20229;-59
2023/08/20 01:57:28;;;;;;;14.97;10.63;;;;;;;20.52;100.00;151186.31;5005795;28;20244;-59
2023/08/20 01:59:55;;;;;;;13.43;10.40;;;;;;;20.54;100.00;151190.03;5001025;28;20241;-59
2023/08/20 02:02:22;;;;;;;13.20;10.33;;;;;;;20.50;100.00;151182.53;4989211;28;20224;-58
2023/08/20 02:04:50;;;;;;;14.47;10.47;;;;;;;20.53;100.00;151188.81;4997424;28;20233;-59
2023/08/20 02:07:16;;;;;;;13.27;10.63;;;;;;;20.48;100.00;151176.28;4993845;28;20226;-59
2023/08/20 02:09:43;;;;;;;12.00;10.40;;;;;;;20.47;100.00;151173.78;5011354;28;20255;-58
2023/08/20 02:12:10;;;;;;;13.80;10.37;;;;;;;20.48;100.00;151176.28;4990413;28;20489;-59
2023/08/20 02:14:37;;;;;;;16.70;10.80;;;;;;;20.46;100.00;151171.25;4998331;28;20646;-58
2023/08/20 02:17:03;;;;;;;14.47;9.90;;;;;;;20.47;100.00;151175.00;4991477;28;20254;-59
2023/08/20 02:19:30;;;;;;;14.27;9.90;;;;;;;20.44;100.00;151166.25;4990066;28;20244;-59
2023/08/20 02:21:58;;;;;;;14.10;10.63;;;;;;;20.42;100.00;151162.47;5000123;28;20771;-57
2023/08/20 02:24:24;;;;;;;18.03;11.37;;;;;;;20.43;100.00;151163.75;5003997;28;20232;-58
2023/08/20 02:26:51;;;;;;;14.77;11.00;;;;;;;20.42;100.00;151162.47;4997019;28;20689;-58
2023/08/20 02:29:18;;;;;;;16.20;10.67;;;;;;;20.39;100.00;151153.72;4998205;28;20241;-59
2023/08/20 02:31:45;;;;;;;12.87;11.47;;;;;;;20.43;100.00;151163.75;5009432;28;20241;-57
2023/08/20 02:34:11;;;;;;;17.27;11.97;;;;;;;20.37;100.00;151148.72;4990722;28;20254;-58
2023/08/20 02:36:39;;;;;;;16.83;12.33;;;;;;;20.31;100.00;151134.91;5006635;28;20236;-59
2023/08/20 02:39:07;;;;;;;14.63;11.90;;;;;;;20.27;100.00;151124.88;5007466;28;20238;-58
2023/08/20 02:41:35;;;;;;;18.07;11.10;;;;;;;20.26;100.00;151123.66;4998365;28;20237;-57
2023/08/20 02:44:02;;;;;;;16.40;10.93;;;;;;;20.26;100.00;151123.66;4996822;28;20240;-58
2023/08/20 02:46:29;;;;;;;17.43;11.70;;;;;;;20.28;100.00;151127.38;5010785;28;20242;-58
2023/08/20 02:48:57;;;;;;;15.27;11.57;;;;;;;20.24;100.00;151117.38;5007128;28;20237;-58
2023/08/20 02:51:24;;;;;;;12.03;10.73;;;;;;;20.19;100.00;151106.09;5005674;28;20236;-58
2023/08/20 02:53:51;;;;;;;18.10;11.40;;;;;;;20.21;100.00;151111.13;4995411;28;20233;-58
2023/08/20 02:56:19;;;;;;;17.13;11.37;;;;;;;20.18;100.00;151104.84;5007906;28;20744;-58
2023/08/20 02:58:46;;;;;;;19.20;12.20;;;;;;;20.21;100.00;151112.34;5003436;28;20227;-57
2023/08/20 03:01:20;;;;;;;15.93;11.20;;;;;;;20.16;100.00;151099.81;4992196;28;20237;-58
2023/08/20 03:03:46;;;;;;;12.83;10.87;;;;;;;20.18;100.00;151104.84;4992224;28;20216;-57
2023/08/20 03:06:14;;;;;;;18.30;11.83;;;;;;;20.18;100.00;151104.84;4998387;28;20247;-58
2023/08/20 03:08:41;;;;;;;13.77;11.00;;;;;;;20.16;100.00;151098.59;5001470;28;20246;-58
2023/08/20 03:11:08;;;;;;;14.67;11.20;;;;;;;20.13;100.00;151092.34;4998167;28;20249;-57
2023/08/20 03:13:36;;;;;;;16.67;11.60;;;;;;;20.11;100.00;151087.34;4996808;28;20232;-58
2023/08/20 03:16:03;;;;;;;16.23;11.53;;;;;;;20.20;100.00;151108.63;4996416;28;20231;-58
2023/08/20 03:18:29;;;;;;;17.43;11.40;;;;;;;20.24;100.00;151117.38;5002702;28;20685;-58
2023/08/20 03:20:57;;;;;;;12.80;11.43;;;;;;;20.21;100.00;151112.34;4996172;28;20220;-58
2023/08/20 03:23:24;;;;;;;15.83;11.83;;;;;;;20.21;100.00;151112.34;4994859;28;20235;-58
2023/08/20 03:25:51;;;;;;;17.20;10.20;;;;;;;20.20;100.00;151108.63;5005677;28;20242;-58
2023/08/20 03:28:19;;;;;;;13.80;11.17;;;;;;;20.17;100.00;151101.09;5006646;28;20232;-58
2023/08/20 03:33:27;;;;;;;14.33;11.33;;;;;;;20.19;100.00;151107.34;4974779;28;20300;-58
2023/08/20 03:35:54;;;;;;;18.80;11.47;;;;;;;20.17;100.00;151102.31;4961345;28;20564;-58
2023/08/20 03:38:22;;;;;;;20.60;14.30;;;;;;;20.24;100.00;151118.63;4959580;28;20236;-56
2023/08/20 03:40:48;;;;;;;14.87;13.37;;;;;;;20.28;100.00;151127.38;4962713;28;20232;-56
2023/08/20 03:43:16;;;;;;;15.73;12.47;;;;;;;20.29;100.00;151131.16;4947194;28;20232;-58
2023/08/20 03:45:42;;;;;;;15.83;12.63;;;;;;;20.23;100.00;151114.84;4950212;28;20222;-58
2023/08/20 03:48:10;;;;;;;16.00;11.83;;;;;;;20.17;100.00;151102.31;4958777;28;20583;-57
2023/08/20 03:50:37;;;;;;;15.50;11.50;;;;;;;20.20;100.00;151109.84;4972165;28;20232;-58
2023/08/20 03:53:04;;;;;;;15.13;10.10;;;;;;;20.17;100.00;151102.31;4967024;28;20218;-58
2023/08/20 03:55:31;;;;;;;11.43;10.23;;;;;;;20.15;100.00;151096.09;4960203;28;20226;-58
2023/08/20 03:57:57;;;;;;;14.63;10.90;;;;;;;20.10;100.00;151084.84;4957606;28;20231;-58
2023/08/20 04:00:24;;;;;;;17.03;10.53;;;;;;;20.08;100.00;151079.81;4943187;28;20260;-58
2023/08/20 04:02:51;;;;;;;15.73;11.27;;;;;;;19.96;100.00;151051.00;4963847;28;20292;-57
2023/08/20 04:05:18;;;;;;;15.53;11.00;;;;;;;19.85;100.00;151023.38;4945365;28;20228;-60
2023/08/20 04:07:45;;;;;;;14.13;10.80;;;;;;;19.83;100.00;151019.66;4966472;28;20220;-58
2023/08/20 04:10:12;;;;;;;20.87;11.70;;;;;;;19.77;100.00;151004.63;4963859;28;20235;-57
2023/08/20 04:12:38;;;;;;;20.30;11.10;;;;;;;19.75;100.00;151000.84;4965501;28;20315;-58
2023/08/20 04:15:06;;;;;;;13.53;11.87;;;;;;;19.76;100.00;151002.09;4961221;28;20226;-58
2023/08/20 04:17:33;;;;;;;17.33;11.30;;;;;;;19.73;100.00;150994.59;4941954;28;20238;-57
2023/08/20 04:20:07;;;;;;;14.47;10.93;;;;;;;19.73;100.00;150994.59;4968316;28;20306;-58
2023/08/20 04:22:36;;;;;;;18.73;11.80;;;;;;;19.73;100.00;150994.59;4944818;28;20228;-58
2023/08/20 04:25:04;;;;;;;13.83;10.47;;;;;;;19.75;100.00;150999.59;4966039;28;20230;-58
2023/08/20 04:27:31;;;;;;;15.53;10.57;;;;;;;19.76;100.00;151003.34;4941419;28;20294;-58
2023/08/20 04:30:01;;;;;;;13.37;10.13;;;;;;;19.82;100.00;151015.88;4962423;28;20798;-58
2023/08/20 04:32:28;;;;;;;10.60;9.50;;;;;;;19.81;100.00;151014.63;4945804;28;20668;-57
2023/08/20 04:34:55;;;;;;;18.00;10.83;;;;;;;19.80;100.00;151010.84;4979188;28;20833;-57
2023/08/20 04:37:24;;;;;;;20.60;11.00;;;;;;;19.84;100.00;151022.16;4950656;28;20256;-58
2023/08/20 04:39:53;;;;;;;14.43;9.97;;;;;;;19.91;100.00;151038.47;4946841;28;20847;-58
2023/08/20 04:42:19;;;;;;;14.70;10.53;;;;;;;19.94;100.00;151044.75;4944177;28;20266;-58
2023/08/20 04:44:46;;;;;;;14.83;10.27;;;;;;;20.00;100.00;151059.78;4964430;28;20236;-58
2023/08/20 04:47:13;;;;;;;11.77;10.23;;;;;;;20.05;100.00;151073.53;4962554;28;20274;-58
2023/08/20 04:49:40;;;;;;;11.50;10.20;;;;;;;20.12;100.00;151089.84;4963585;28;20238;-58
2023/08/20 04:52:06;;;;;;;12.60;8.90;;;;;;;20.17;100.00;151101.09;4965648;28;20281;-56
2023/08/20 04:54:34;;;;;;;11.93;8.80;;;;;;;20.24;100.00;151117.38;4945914;28;20224;-58
2023/08/20 04:57:04;;;;;;;14.63;9.80;;;;;;;20.31;100.00;151134.91;4944594;28;20316;-58
2023/08/20 04:59:30;;;;;;;11.80;9.07;;;;;;;20.37;100.00;151148.72;4943618;28;20297;-58
2023/08/20 05:02:23;;;;;;;12.83;9.00;;;;;;;20.43;100.00;151164.97;4946687;28;20228;-58
2023/08/20 05:04:54;;;;;;;13.00;9.10;;;;;;;20.51;100.00;151183.78;4944337;28;20656;-58
2023/08/20 05:07:21;;;;;;;12.60;8.80;;;;;;;20.63;100.00;151213.88;4942835;28;20226;-58
2023/08/20 05:09:47;;;;;;;13.10;8.97;;;;;;;20.71;100.00;151232.66;4946211;28;20769;-58
2023/08/20 05:12:15;;;;;;;15.03;8.67;;;;;;;20.75;100.00;151242.69;4938671;28;20234;-58
2023/08/20 05:14:42;;;;;;;11.73;8.60;;;;;;;20.82;100.00;151257.75;4947018;28;20561;-58
2023/08/20 05:17:09;;;;;;;9.67;8.30;;;;;;;20.88;100.00;151274.03;4943069;28;20232;-59
2023/08/20 05:19:35;;;;;;;12.30;8.80;;;;;;;20.92;100.00;151282.81;4948740;28;20223;-56
2023/08/20 05:22:02;;;;;;;10.10;8.67;;;;;;;21.03;100.00;151309.13;4945963;28;20706;-59
2023/08/20 05:24:33;;;;;;;9.30;7.90;;;;;;;21.14;100.00;151336.69;4950542;28;20223;-58
2023/08/20 05:27:08;;;;;;;10.73;7.80;;;;;;;21.25;100.00;151363.00;4945886;28;20598;-58
2023/08/20 05:29:36;;;;;;;8.67;7.50;;;;;;;21.35;100.00;151386.84;4951958;28;20218;-58
2023/08/20 05:32:03;;;;;;;11.97;8.30;;;;;;;21.42;100.00;151403.13;4946528;28;20237;-58
2023/08/20 05:34:30;;;;;;;10.27;7.87;;;;;;;21.55;100.00;151435.72;4960349;28;20365;-59
2023/08/20 05:36:56;;;;;;;10.03;7.87;;;;;;;21.72;100.00;151477.16;4946793;28;20230;-58
2023/08/20 05:39:25;;;;;;;13.13;7.90;;;;;;;21.80;100.00;151495.97;4944701;28;20230;-58
2023/08/20 05:41:52;;;;;;;12.17;8.50;;;;;;;21.90;100.00;151521.03;4942555;28;20588;-58
2023/08/20 05:44:19;;;;;;;14.90;8.57;;;;;;;21.89;100.00;151517.25;4955477;28;20242;-58
2023/08/20 05:46:47;;;;;;;11.93;8.33;;;;;;;21.73;100.00;151479.63;4943282;28;20229;-58
2023/08/20 05:49:15;;;;;;;17.90;8.83;;;;;;;21.81;100.00;151499.69;4947298;28;20241;-58
2023/08/20 05:51:43;;;;;;;10.67;7.60;;;;;;;21.89;100.00;151518.53;4947439;28;20281;-58
2023/08/20 05:54:10;;;;;;;9.13;7.63;;;;;;;21.93;100.00;151527.28;4958729;28;20297;-58
2023/08/20 05:56:37;;;;;;;15.73;8.40;;;;;;;21.91;100.00;151522.25;4942767;28;20224;-58
2023/08/20 05:59:04;;;;;;;14.77;8.60;;;;;;;21.89;100.00;151518.53;4945838;28;20233;-58
2023/08/20 06:01:32;;;;;;;10.00;8.40;;;;;;;21.97;100.00;151537.31;4953013;28;20223;-58
2023/08/20 06:04:01;;;;;;;11.20;8.37;;;;;;;22.06;100.00;151558.66;4961825;28;20227;-58
2023/08/20 06:06:28;;;;;;;10.40;8.57;;;;;;;22.10;100.00;151569.91;4960405;28;20322;-58
2023/08/20 06:08:55;;;;;;;11.33;8.43;;;;;;;22.14;100.00;151578.72;4963284;28;20227;-58
2023/08/20 06:11:22;;;;;;;9.83;7.87;;;;;;;22.21;100.00;151596.28;4959817;28;20229;-59
2023/08/20 06:13:48;;;;;;;10.43;8.33;;;;;;;22.31;100.00;151620.09;4962877;28;20286;-56
2023/08/20 06:16:15;;;;;;;12.30;8.57;;;;;;;22.37;100.00;151633.88;4962444;28;20243;-58
2023/08/20 06:18:42;;;;;;;14.30;8.53;;;;;;;22.37;100.00;151635.16;4963766;28;20252;-58
2023/08/20 06:21:10;;;;;;;9.70;8.07;;;;;;;22.39;100.00;151638.88;4963173;28;20231;-59
2023/08/20 06:23:36;;;;;;;11.57;8.20;;;;;;;22.39;100.00;151640.16;4960578;28;20231;-58
2023/08/20 06:26:03;;;;;;;10.87;7.67;;;;;;;22.43;100.00;151648.91;4961732;28;20243;-56
2023/08/20 06:28:30;;;;;;;11.83;8.40;;;;;;;22.43;100.00;151648.91;4958661;28;20235;-58
2023/08/20 06:30:57;;;;;;;12.03;8.37;;;;;;;22.50;100.00;151666.53;4962058;28;20216;-58
2023/08/20 06:33:23;;;;;;;12.73;8.37;;;;;;;22.55;100.00;151679.06;4960847;28;20236;-58
2023/08/20 06:35:50;;;;;;;9.07;7.77;;;;;;;22.61;100.00;151691.63;4945056;28;20225;-59
2023/08/20 06:38:18;;;;;;;13.00;8.33;;;;;;;22.58;100.00;151684.09;4960686;28;20236;-58
2023/08/20 06:40:44;;;;;;;9.23;7.73;;;;;;;22.61;100.00;151692.91;4962100;28;20610;-58
2023/08/20 06:43:11;;;;;;;11.37;8.50;;;;;;;22.63;100.00;151697.91;4959076;28;20220;-58
2023/08/20 06:45:37;;;;;;;13.97;9.00;;;;;;;22.66;100.00;151705.44;4962876;28;20606;-58
2023/08/20 06:48:05;;;;;;;14.20;10.27;;;;;;;22.66;100.00;151705.44;4963197;28;20235;-58
2023/08/20 06:50:32;;;;;;;13.77;10.33;;;;;;;22.60;100.00;151689.09;4960637;28;20220;-58
2023/08/20 06:52:58;;;;;;;15.93;11.20;;;;;;;22.63;100.00;151696.63;4961082;28;20242;-58
2023/08/20 06:55:26;;;;;;;13.10;9.53;;;;;;;22.80;100.00;151739.28;4961614;28;20238;-58
2023/08/20 06:57:53;;;;;;;12.97;11.00;;;;;;;22.88;100.00;151756.84;4964049;28;20750;-58
2023/08/20 07:00:20;;;;;;;12.93;10.47;;;;;;;22.90;100.00;151763.09;4958804;28;20239;-57
2023/08/20 07:02:46;;;;;;;15.40;10.67;;;;;;;23.01;100.00;151789.47;4959000;28;20279;-59
2023/08/20 07:05:14;;;;;;;13.23;10.20;;;;;;;23.14;100.00;151822.09;4958414;28;20220;-58
2023/08/20 07:07:41;;;;;;;13.43;10.67;;;;;;;23.24;100.00;151845.97;4960237;28;20261;-58
2023/08/20 07:10:08;;;;;;;11.13;10.00;;;;;;;23.32;100.00;151863.53;4961963;28;20237;-58
2023/08/20 07:12:36;;;;;;;12.73;10.13;;;;;;;23.39;100.00;151882.34;4959825;28;20241;-58
2023/08/20 07:15:04;;;;;;;11.90;10.00;;;;;;;23.37;100.00;151877.31;4947627;28;20248;-58
2023/08/20 07:17:31;;;;;;;12.67;9.73;;;;;;;23.48;100.00;151902.44;4957313;28;20653;-58
2023/08/20 07:20:01;;;;;;;11.40;10.20;;;;;;;23.53;100.00;151914.97;4963712;28;20263;-57
2023/08/20 07:22:27;;;;;;;13.37;9.07;;;;;;;23.49;100.00;151904.94;4958905;28;20236;-58
2023/08/20 07:24:54;;;;;;;10.87;9.33;;;;;;;23.49;100.00;151904.94;4962911;28;20236;-58
2023/08/20 07:27:21;;;;;;;11.40;9.20;;;;;;;23.51;100.00;151911.25;4957612;28;20721;-59
2023/08/20 07:29:49;;;;;;;11.87;8.73;;;;;;;23.50;100.00;151907.44;4962459;28;20236;-58
2023/08/20 07:32:15;;;;;;;11.50;9.07;;;;;;;23.58;100.00;151927.53;4960211;28;20240;-58
2023/08/20 07:34:42;;;;;;;13.33;10.23;;;;;;;23.59;100.00;151930.03;4962565;28;20239;-58
2023/08/20 07:37:08;;;;;;;10.77;9.67;;;;;;;23.63;100.00;151940.09;4963433;28;20251;-59
2023/08/20 07:39:35;;;;;;;12.70;9.57;;;;;;;23.78;100.00;151975.22;4960997;28;20236;-58
2023/08/20 07:42:02;;;;;;;10.30;8.90;;;;;;;23.85;100.00;151992.81;4963982;28;20244;-59
2023/08/20 07:44:31;;;;;;;10.00;9.00;;;;;;;23.92;100.00;152010.38;4958772;28;20233;-58
2023/08/20 07:46:59;;;;;;;11.63;9.53;;;;;;;23.88;100.00;152000.34;4960547;28;20217;-57
2023/08/20 07:49:26;;;;;;;10.83;8.57;;;;;;;23.96;100.00;152020.41;4959241;28;20728;-58
2023/08/20 07:51:54;;;;;;;10.17;8.73;;;;;;;24.08;100.00;152049.31;4961751;28;20235;-58
2023/08/20 07:54:23;;;;;;;13.67;10.30;;;;;;;24.17;100.00;152070.69;4958438;28;20309;-58
2023/08/20 07:56:50;;;;;;;15.83;11.00;;;;;;;24.01;100.00;152031.75;4962139;28;20247;-58
2023/08/20 07:59:16;;;;;;;13.27;11.20;;;;;;;24.02;100.00;152034.25;4957539;28;20252;-58
2023/08/20 08:01:43;;;;;;;15.60;11.00;;;;;;;24.11;100.00;152056.84;4960145;28;20237;-57
2023/08/20 08:04:11;;;;;;;12.10;10.90;;;;;;;24.19;100.00;152075.72;4956712;28;20576;-57
2023/08/20 08:06:37;;;;;;;12.17;10.83;;;;;;;24.26;100.00;152093.28;4961314;28;20240;-58
2023/08/20 08:09:21;;;;;;;16.93;11.90;;;;;;;24.13;100.00;152060.66;4962242;28;20237;-58
2023/08/20 08:11:48;;;;;;;13.33;11.23;;;;;;;24.15;100.00;152066.91;4958556;28;20319;-56
2023/08/20 08:14:14;;;;;;;13.23;10.80;;;;;;;24.35;100.00;152114.59;4959860;28;20248;-58
2023/08/20 08:16:41;;;;;;;13.80;11.40;;;;;;;24.46;100.00;152142.22;4961587;28;20768;-58
2023/08/20 08:19:08;;;;;;;16.77;11.97;;;;;;;24.34;100.00;152112.09;4961874;28;20234;-58
2023/08/20 08:21:36;;;;;;;14.53;11.50;;;;;;;24.55;100.00;152163.56;4957005;28;20248;-58
2023/08/20 08:24:03;;;;;;;13.77;10.47;;;;;;;24.64;100.00;152184.94;4961372;28;20312;-58
2023/08/20 08:26:30;;;;;;;16.37;11.17;;;;;;;24.64;100.00;152184.94;4961019;28;20267;-59
2023/08/20 08:28:57;;;;;;;15.80;12.13;;;;;;;24.57;100.00;152167.34;4966036;28;20256;-59
2023/08/20 08:31:24;;;;;;;14.03;11.30;;;;;;;24.74;100.00;152210.09;4960810;28;20236;-58
2023/08/20 08:33:51;;;;;;;13.70;11.43;;;;;;;24.84;99.92;152232.72;4964504;28;20235;-58
2023/08/20 08:36:17;;;;;;;16.63;11.93;;;;;;;24.70;99.52;152200.00;4961828;28;20235;-58
2023/08/20 08:38:46;;;;;;;13.20;11.50;;;;;;;24.73;99.91;152206.31;4963525;28;20232;-58
2023/08/20 08:41:13;;;;;;;12.03;10.87;;;;;;;24.90;98.87;152249.00;4960378;28;20626;-58
2023/08/20 08:43:41;;;;;;;16.23;11.03;;;;;;;24.96;98.78;152262.81;4966557;28;20225;-58
2023/08/20 08:46:09;;;;;;;16.70;12.30;;;;;;;24.84;100.00;152232.72;4963420;28;20228;-58
2023/08/20 08:48:35;;;;;;;20.90;12.17;;;;;;;24.69;100.00;152197.50;4962737;28;20237;-58
2023/08/20 08:51:02;;;;;;;16.23;12.10;;;;;;;24.76;100.00;152215.13;4964017;28;20240;-57
2023/08/20 08:53:33;;;;;;;16.97;12.60;;;;;;;24.87;100.00;152241.47;4961530;28;20242;-58
2023/08/20 08:56:02;;;;;;;16.00;12.17;;;;;;;24.89;100.00;152246.50;4963975;28;20248;-58
2023/08/20 08:58:29;;;;;;;18.77;11.87;;;;;;;25.01;99.16;152275.38;4962094;28;20428;-58
2023/08/20 09:00:56;;;;;;;12.70;11.30;;;;;;;25.17;99.38;152314.31;4965112;28;20221;-57
2023/08/20 09:03:24;;;;;;;13.00;11.53;;;;;;;25.22;97.96;152325.63;4959467;28;20245;-57
2023/08/20 09:05:54;;;;;;;12.67;11.30;;;;;;;25.17;96.94;152314.31;4962376;28;20232;-59
2023/08/20 09:08:21;;;;;;;11.37;9.77;;;;;;;25.41;95.80;152372.13;4961219;28;20241;-57
2023/08/20 09:10:51;;;;;;;20.77;12.27;;;;;;;25.31;96.89;152347.00;4963931;28;20743;-57
2023/08/20 09:13:23;;;;;;;13.90;11.30;;;;;;;25.36;94.94;152359.56;4952857;28;20682;-58
2023/08/20 09:15:51;;;;;;;10.73;9.60;;;;;;;25.64;94.39;152428.69;4963175;28;20305;-58
2023/08/20 09:18:18;;;;;;;12.10;10.80;;;;;;;25.63;94.52;152426.16;4928936;28;20235;-58
2023/08/20 09:20:44;;;;;;;12.93;9.33;;;;;;;25.87;90.29;152482.69;4956788;28;20230;-57
2023/08/20 09:23:12;;;;;;;14.70;9.83;;;;;;;25.90;88.35;152491.50;4961550;28;20232;-56
2023/08/20 09:25:39;;;;;;;12.70;9.20;;;;;;;25.81;88.24;152467.63;4965467;28;20413;-57
2023/08/20 09:28:06;;;;;;;10.10;9.00;;;;;;;25.89;87.99;152489.00;4962487;28;20233;-57
2023/08/20 09:30:34;;;;;;;13.97;9.83;;;;;;;25.98;87.97;152510.34;4960057;28;20282;-57
2023/08/20 09:33:05;;;;;;;13.23;9.90;;;;;;;26.05;86.91;152526.66;4963812;28;20231;-58
2023/08/20 09:35:32;;;;;;;12.70;9.47;;;;;;;26.11;88.36;152540.50;4945745;28;20232;-59
2023/08/20 09:38:02;;;;;;;12.47;8.67;;;;;;;26.37;88.38;152604.63;4942630;28;20222;-58
2023/08/20 09:40:29;;;;;;;11.77;8.37;;;;;;;26.45;86.50;152624.72;4961115;28;20250;-58
2023/08/20 09:42:57;;;;;;;13.17;9.33;;;;;;;26.60;88.99;152659.94;4963987;28;20243;-57
2023/08/20 09:45:26;;;;;;;13.10;9.70;;;;;;;26.62;85.71;152666.19;4959091;28;20248;-59
2023/08/20 09:47:56;;;;;;;10.93;9.27;;;;;;;26.89;85.11;152730.38;4963174;28;20829;-57
2023/08/20 09:50:24;;;;;;;14.07;8.90;;;;;;;27.01;84.88;152759.28;4960563;28;20250;-58
2023/08/20 09:52:58;;;;;;;12.23;9.63;;;;;;;27.25;82.05;152819.63;4962056;28;20255;-58
2023/08/20 09:55:30;;;;;;;10.30;8.73;;;;;;;27.39;81.97;152852.31;4960132;28;20231;-58
2023/08/20 09:57:57;;;;;;;11.57;9.87;;;;;;;26.88;85.14;152729.09;4962042;28;20242;-58
2023/08/20 10:00:24;;;;;;;12.20;9.67;;;;;;;26.81;85.74;152712.72;4959649;28;20235;-58
2023/08/20 10:02:54;;;;;;;18.03;9.90;;;;;;;26.88;85.28;152727.88;4962428;28;20600;-56
2023/08/20 10:05:21;;;;;;;10.30;9.03;;;;;;;27.07;84.74;152774.34;4959815;28;20227;-58
2023/08/20 10:07:49;;;;;;;14.20;9.60;;;;;;;27.20;83.11;152807.06;4962080;28;20319;-58
2023/08/20 10:10:17;;;;;;;13.03;10.33;;;;;;;27.13;84.75;152789.44;4959785;28;20240;-58
2023/08/20 10:12:44;;;;;;;14.47;9.70;;;;;;;27.15;83.52;152793.19;4965664;28;20241;-59
2023/08/20 10:15:13;;;;;;;14.53;9.83;;;;;;;27.11;84.09;152785.66;4959310;28;20275;-59
2023/08/20 10:17:42;;;;;;;9.50;8.33;;;;;;;27.34;82.75;152839.75;4960735;28;20242;-58
2023/08/20 10:20:11;;;;;;;11.33;10.10;;;;;;;27.46;83.60;152869.94;4944057;28;20259;-59
2023/08/20 10:22:38;;;;;;;11.60;9.07;;;;;;;27.69;82.23;152925.28;4962664;28;20319;-59
2023/08/20 10:25:07;;;;;;;11.87;9.23;;;;;;;27.59;81.05;152900.13;4961022;28;20755;-58
2023/08/20 10:27:35;;;;;;;12.47;9.33;;;;;;;27.79;81.67;152950.41;4959999;28;20241;-58
2023/08/20 10:30:11;;;;;;;15.23;10.13;;;;;;;27.61;82.44;152906.44;4961664;28;20240;-57
2023/08/20 10:32:48;;;;;;;13.37;9.77;;;;;;;27.41;81.58;152858.59;4957126;28;20243;-58
2023/08/20 10:35:19;;;;;;;12.77;9.27;;;;;;;27.71;82.66;152930.28;4960163;28;20233;-58
2023/08/20 10:38:07;;;;;;;13.97;10.03;;;;;;;27.95;82.66;152989.44;4962527;28;21100;-57
2023/08/20 10:41:06;;;;;;;12.57;9.60;;;;;;;28.17;77.71;153041.03;4959246;28;20256;-57
2023/08/20 10:43:34;;;;;;;14.27;9.83;;;;;;;28.12;79.72;153029.66;4899257;29;20245;-57
2023/08/20 10:46:05;;;;;;;10.00;8.90;;;;;;;28.28;77.80;153068.72;4949677;28;20212;-57
2023/08/20 10:48:33;;;;;;;10.57;8.37;;;;;;;28.49;77.58;153119.03;4958304;28;20227;-57
2023/08/20 10:51:10;;;;;;;10.37;9.20;;;;;;;28.47;76.85;153115.25;4963116;28;20280;-58
2023/08/20 10:53:37;;;;;;;10.85;9.40;;;;;;;28.68;76.45;153166.81;4960717;28;20264;-57
2023/08/20 10:56:11;;;;;;;11.07;8.18;;;;;;;28.79;76.46;153192.03;4962404;28;20232;-57
2023/08/20 10:58:41;;;;;;;10.70;8.23;;;;;;;28.89;77.01;153215.97;4961098;28;20228;-57
2023/08/20 11:01:16;;;;;;;11.10;7.93;;;;;;;28.87;70.96;153213.44;4960687;28;20242;-58
2023/08/20 11:03:43;;;;;;;10.03;7.43;;;;;;;28.98;73.33;153238.59;4960095;28;20222;-58
2023/08/20 11:06:12;;;;;;;11.25;8.32;;;;;;;29.21;72.04;153293.94;4961749;28;20234;-58
2023/08/20 11:08:39;;;;;;;10.82;8.20;;;;;;;29.27;71.14;153310.31;4961824;28;20221;-58
2023/08/20 11:11:06;;;;;;;9.37;7.87;;;;;;;29.46;69.43;153355.69;4962574;28;20239;-58
2023/08/20 11:13:34;;;;;;;11.50;8.13;;;;;;;29.60;68.89;153389.66;4959192;28;20249;-57